NCAR-RAP Real-Time Weather Data

Output produced by METARs form (20 February 2019  17:38 UTC)
found at http://weather.rap.ucar.edu/surface/
 
RJOA 201300Z 31007KT 9999 FEW020 BKN030 BKN040 05/M02 Q1022
RJOA 201200Z 32007KT 290V360 9999 FEW020 BKN030 06/M02 Q1021
RJOA 201100Z 31010KT 9999 FEW020 BKN035 06/M02 Q1021
RJOA 201000Z 32007KT 9999 FEW020 BKN030 07/M00 Q1020
RJOA 200900Z 31011KT 9999 SCT025 07/M01 Q1020
RJOA 200800Z 32015KT 9999 FEW020 SCT040 08/M00 Q1019
RJOA 200700Z 32014KT 9999 FEW020 SCT035 10/01 Q1018
RJOA 200600Z 33012KT 9999 FEW020 SCT035 10/02 Q1017
RJOA 200500Z 32008KT 280V350 9999 FEW020 BKN030 11/02 Q1017
RJOA 200400Z 30009KT 9999 FEW015 SCT025 BKN035 12/03 Q1017
RJOA 200300Z 30010KT 9999 FEW015 SCT025 BKN035 12/04 Q1018
RJOA 200200Z 30010KT 9999 FEW015 BKN025 12/05 Q1018
RJOA 200100Z 30011KT 9999 FEW010 BKN025 10/05 Q1018
RJOA 200000Z 30011KT 9999 FEW004 SCT010 BKN025 10/07 Q1018
RJOA 192300Z 30005KT 9999 FEW010 BKN025 10/08 Q1017
RJOA 192200Z 28006KT 9999 -SHRA FEW010 BKN025 09/08 Q1016
RJOA 192110Z 30008KT 9999 FEW010 SCT050 10/08 Q1016 RMK 1CU010 3SC050 A3001
RJOA 191300Z 28008KT 8000 FEW002 BKN005 BKN015 12/11 Q1015
RJOA 191240Z 28006KT 9999 FEW002 BKN005 BKN015 12/11 Q1015 RMK 1ST002 5ST005 6CU015 A2999
RJOA 191200Z 29008KT 9999 FEW010 BKN045 12/11 Q1014
RJOA 191100Z 29006KT 8000 FEW002 SCT010 12/11 Q1013
RJOA 191000Z 30006KT 6000 FEW001 SCT007 BKN020 11/10 Q1013
RJOA 190900Z 31007KT 5000 BCFG BR FEW000 SCT003 BKN007 11/10 Q1012
RJOA 190819Z 31006KT 4000 R10/0900VP1800U BCFG BR FEW000 BKN007 BKN015 10/09 Q1012 RMK 1ST000 5ST007 6CU015 A2990 2000W FG SE AND SW-W
RJOA 190816Z 31006KT 4000 R10/0900VP1800U BCFG BR FEW000 BKN007 BKN015 10/08 Q1012 RMK 1ST000 5ST007 6CU015 A2990 2000W FG SE AND SW-W
RJOA 190809Z 31005KT 230V340 3500 R10/0600V1800U BCFG BR FEW000 BKN006 BKN015 09/08 Q1012 RMK 1ST000 5ST006 6CU015 A2990 1500W FG SE AND SW-W
RJOA 190800Z 31006KT 2500 R10/0500V0800N BCFG BR FEW000 BKN005 BKN015 09/08 Q1012
RJOA 190733Z 28003KT 240V330 1800 R10/0300V1200N -SHRA BCFG BR FEW000 BKN007 BKN015 09/08 Q1011 RMK 1ST000 5ST007 6CU015 A2988 FG ALL QUAD
RJOA 190729Z 27003KT 240V320 2000 R10/0300V1600D -SHRA BCFG BR FEW000 BKN007 BKN015 09/08 Q1011 RMK 1ST000 5ST007 6CU015 A2988 FG ALL QUAD
RJOA 190719Z 30003KT 270V360 2000 R10/0400VP1800D -SHRA BCFG BR FEW000 BKN007 BKN015 09/08 Q1012 RMK 1ST000 5ST007 6CU015 A2988 FG ALL QUAD
RJOA 190714Z 28004KT 230V360 2000 R10/0400VP1800D -SHRA BCFG BR FEW000 BKN008 BKN015 10/09 Q1012 RMK 1ST000 5ST008 6CU015 A2989 FG ALL QUAD
RJOA 190700Z VRB02KT 2500 BCFG BR FEW000 SCT010 BKN015 10/09 Q1011
RJOA 190625Z VRB02KT 2500 BCFG BR FEW000 SCT005 BKN020 09/08 Q1011 RMK 1ST000 3ST005 6CU020 A2988 FG ALL QUAD
RJOA 190608Z 30003KT 250V330 2000 -SHRA BCFG BR FEW000 SCT005 BKN015 08/07 Q1012 RMK 1ST000 3ST005 6CU015 A2989 FG ALL QUAD
RJOA 190605Z 31004KT 1800 R10/0900VP1800U -SHRA BCFG BR FEW000 SCT004 BKN015 08/07 Q1012 RMK 1ST000 4ST004 6CU015 A2989 FG ALL QUAD
RJOA 190600Z 30005KT 250V360 1600 R10/0400VP1800U -SHRA BCFG BR FEW000 SCT001 BKN004 08/07 Q1012
RJOA 190548Z 30008G18KT 270V350 0500 R10/0350VP1800D -SHRA FG FEW000 SCT001 BKN003 08/07 Q1012 RMK 1ST000 3ST001 6ST003 A2989
RJOA 190544Z 29008G18KT 1200 R10/0350VP1800D -SHRA BCFG BR FEW000 SCT002 BKN003 09/08 Q1012 RMK 1ST000 4ST002 6ST003 A2990 FG ALL QUAD
RJOA 190521Z 07005KT 040V110 1600 R10/P1800N -SHRA BCFG BR FEW000 SCT001 BKN002 08/07 Q1011 RMK 1ST000 4ST001 6ST002 A2988 FG ALL QUAD
RJOA 190507Z 09006KT 0900 R10/0750VP1800U -SHRA FG FEW000 BKN001 BKN002 08/07 Q1011 RMK 1ST000 5ST001 6ST002 A2988 P/FR
RJOA 190500Z 10005KT 0500 R10/0200VP1800U -SHRA FG FEW000 BKN001 BKN002 08/07 Q1012
RJOA 190446Z 10008KT 050V170 1200 R10/0250VP1800D -SHRA BCFG BR FEW000 BKN001 BKN002 08/07 Q1012 RMK 1ST000 5ST001 6ST002 A2990 FG ALL QUAD
RJOA 190440Z 10006KT 0900 R10/0350VP1800U -SHRA FG FEW000 BKN001 BKN002 08/07 Q1012 RMK 1ST000 5ST001 6ST002 A2991
RJOA 190430Z 10004KT 070V130 0600 R10/0500V1200D -SHRA FG FEW000 BKN001 BKN002 08/07 Q1013 RMK 1ST000 5ST001 6ST002 A2992 P/FR
RJOA 190421Z 11005KT 080V150 0600 R10/0300VP1800D -SHRA FG FEW000 SCT001 BKN002 08/07 Q1012 RMK 1ST000 3ST001 6ST002 A2990 P/FR
RJOA 190419Z 12005KT 080V150 0900 R10/0300VP1800D -SHRA FG FEW000 SCT001 BKN002 08/07 Q1012 RMK 1ST000 3ST001 6ST002 A2990 P/FR
RJOA 190417Z 12004KT 080V240 1200 R10/0300VP1800D -SHRA BCFG BR FEW000 SCT001 BKN002 08/07 Q1012 RMK 1ST000 3ST001 6ST002 A2991 FG ALL QUAD P/FR
RJOA 190412Z 14003KT 080V240 1300 R10/0800VP1800U -SHRA BCFG BR FEW000 SCT001 BKN002 08/07 Q1013 RMK 1ST000 3ST001 6ST002 A2993 FG ALL QUAD
RJOA 190405Z 10005KT 1600 R10/0800VP1800N -SHRA BCFG BR FEW000 SCT001 BKN002 08/07 Q1013 RMK 1ST000 3ST001 6ST002 A2994 FG ALL QUAD
RJOA 190400Z 06004KT 1600 R10/0800VP1800D -SHRA BCFG BR FEW000 SCT001 BKN002 08/07 Q1014
RJOA 190345Z VRB01KT 1600 -SHRA BCFG BR FEW000 SCT001 BKN002 07/06 Q1014 RMK 1ST000 4ST001 6ST002 A2996 FG ALL QUAD
RJOA 190328Z 10003KT 0900 R10/1400VP1800U -SHRA FG FEW000 BKN001 BKN002 07/06 Q1014 RMK 1ST000 5ST001 6ST002 A2995
RJOA 190323Z VRB02KT 0900 R10/0700VP1800U -SHRA FG FEW000 BKN001 BKN002 07/06 Q1014 RMK 1ST000 5ST001 6ST002 A2995
RJOA 190318Z VRB01KT 0700 R10/0650VP1800U SHRA FG FEW000 BKN001 BKN002 07/06 Q1014 RMK 1ST000 5ST001 6ST002 A2996
RJOA 190309Z VRB02KT 0600 R10/0450VP1800D -SHRA FG FEW000 BKN001 BKN002 07/06 Q1014 RMK 1ST000 5ST001 6ST002 A2997
RJOA 190308Z 12003KT 020V160 0500 R10/0450VP1800D SHRA FG FEW000 BKN001 BKN002 07/06 Q1014 RMK 1ST000 5ST001 6ST002 A2996
RJOA 190305Z 12004KT 090V150 0500 R10/0600VP1800D -SHRA FG FEW000 BKN001 BKN002 07/06 Q1014 RMK 1ST000 5ST001 6ST002 A2997
RJOA 190302Z 12004KT 080V150 0500 R10/0800VP1800N -SHRA FG FEW000 BKN001 BKN002 07/06 Q1015 RMK 1ST000 5ST001 6ST002 A2997
RJOA 190300Z 12004KT 080V140 0500 R10/1300VP1800D -SHRA FG FEW000 BKN001 BKN002 07/06 Q1015
RJOA 190248Z 10008KT 0800 R10/P1800N -SHRA FG FEW000 BKN001 BKN002 07/06 Q1014 RMK 1ST000 5ST001 6ST002 A2996 P/FR
RJOA 190238Z 09005KT 050V110 0900 R10/P1800N SHRA FG FEW000 BKN001 BKN002 07/06 Q1015 RMK 1ST000 5ST001 6ST002 A2997 P/FR
RJOA 190231Z 09003KT 050V130 0900 R10/0650VP1800U -SHRA FG FEW000 BKN001 BKN002 07/06 Q1015 RMK 1ST000 5ST001 6ST002 A2999
RJOA 190223Z 11004KT 080V140 0800 R10/0500VP1800D SHRA FG FEW000 BKN001 BKN002 06/06 Q1015 RMK 1ST000 5ST001 6ST002 A3000
RJOA 190220Z 12004KT 060V140 0800 R10/0500VP1800D -RA FG FEW000 BKN001 BKN002 07/06 Q1016 RMK 1ST000 5ST001 6ST002 A3000
RJOA 190200Z 09006KT 0800 R10/P1800N -RA FG FEW000 BKN001 BKN002 06/05 Q1016
RJOA 190149Z 09007KT 060V120 0900 R10/1200VP1800U -RA FG FEW000 BKN001 BKN002 06/05 Q1016 RMK 1ST000 5ST001 6ST002 A3001
RJOA 190140Z 11005KT 070V150 0500 R10/1100VP1800D -RA FG FEW000 BKN001 BKN003 06/05 Q1016 RMK 1ST000 5ST001 6ST003 A3003
RJOA 190137Z 11006KT 070V150 0500 R10/1200VP1800D -RA FG FEW000 BKN001 BKN003 06/05 Q1016 RMK 1ST000 5ST001 6ST003 A3003
RJOA 190127Z 10010KT 0700 R10/P1800N -RA FG FEW000 BKN001 BKN003 06/05 Q1016 RMK 1ST000 5ST001 6ST003 A3002
RJOA 190116Z 09010KT 1400 R10/P1800N -RA BCFG BR FEW000 SCT002 BKN003 06/05 Q1016 RMK 1ST000 3ST002 5ST003 A3003 FG ALL QUAD P/FR
RJOA 190100Z 08010KT 1800 -RA BCFG BR FEW000 SCT002 BKN003 06/05 Q1017
RJOA 190038Z 07009KT 1800 -RA BCFG BR FEW000 SCT002 BKN003 06/04 Q1017 RMK 1ST000 3ST002 5ST003 A3005 FG ALL QUAD
RJOA 190031Z 07010KT 1500 R10/P1800N RA BCFG BR FEW000 SCT002 BKN003 06/04 Q1018 RMK 1ST000 3ST002 5ST003 A3006 FG ALL QUAD
RJOA 190016Z 08011KT 1600 R10/P1800N -RA BCFG BR FEW000 SCT002 BKN003 05/04 Q1018 RMK 1ST000 3ST002 5ST003 A3007 FG ALL QUAD
RJOA 190010Z 08011KT 1500 R10/P1800N RA BCFG BR FEW000 SCT002 BKN003 05/04 Q1018 RMK 1ST000 3ST002 5ST003 A3007 FG ALL QUAD P/FR
RJOA 190000Z 08010KT 2000 -RA BCFG BR FEW000 BKN003 BKN006 05/04 Q1019
RJOA 182347Z 07008KT 2200 -RA BCFG BR FEW000 SCT002 BKN003 05/04 Q1019 RMK 1ST000 3ST002 5ST003 A3010 FG ALL QUAD
RJOA 182300Z 08011KT 2500 -RA BCFG BR FEW000 SCT003 BKN006 05/03 Q1019
RJOA 182234Z 08010KT 2500 -RA BCFG BR FEW000 SCT004 BKN008 04/03 Q1020 RMK 1ST000 3ST004 5ST008 A3012 FG ALL QUAD
RJOA 182224Z 08010KT 2000 -RA BCFG BR FEW000 SCT004 BKN008 04/03 Q1020 RMK 1ST000 3ST004 5ST008 A3012 FG ALL QUAD
RJOA 182210Z 08009KT 2000 RA BCFG BR FEW000 SCT004 BKN020 04/03 Q1020 RMK 1ST000 3ST004 6CU020 A3013 FG ALL QUAD
RJOA 182200Z 07009KT 3000 -RA BCFG BR FEW000 SCT008 BKN020 04/03 Q1020
RJOA 182110Z 07007KT 4500 -RA BR FEW002 BKN020 BKN035 04/02 Q1020 RMK 1ST002 5CU020 6SC035 A3014
RJOA 181300Z 11004KT 9999 FEW030 BKN070 06/M05 Q1024
RJOA 181200Z 11003KT 9999 SCT030 BKN080 06/M01 Q1025
RJOA 181100Z 11004KT 9999 FEW030 BKN090 BKN120 07/M01 Q1024
RJOA 181000Z VRB02KT 9999 FEW030 BKN090 07/M02 Q1024
RJOA 180900Z 13004KT CAVOK 07/M03 Q1024
RJOA 180800Z 14004KT 9999 FEW030 SCT110 BKN130 08/M04 Q1023
RJOA 180700Z 14004KT 090V170 9999 FEW030 BKN130 BKN/// 09/M05 Q1023
RJOA 180600Z 12005KT 080V180 9999 FEW030 BKN/// 09/M05 Q1023